Time;durP1;ratioP1;P1;durP2;ratioP2;P2;SDS_P1;SDS_P2;PMS_P1;PMS_P2;Temp;Humidity;BMP_temperature;BMP_pressure;BME280_temperature;BME280_humidity;BME280_pressure;Samples;Min_cycle;Max_cycle;Signal;HPM_P1;HPM_P2
2024/04/07 05:57:11;;;;;;;4.35;1.50;;;;;;;14.57;57.51;96654.78;2101034;27;20764;-62
2024/04/07 06:02:49;;;;;;;5.30;1.25;;;;;;;14.68;62.25;96673.41;2083957;28;20588;-63
2024/04/07 06:28:29;;;;;;;9.32;1.73;;;;;;;15.87;56.70;96693.25;2095403;27;21223;-62
2024/04/07 06:31:30;;;;;;;17.63;2.08;;;;;;;16.20;59.86;96691.97;2092762;27;20568;-64
2024/04/07 06:32:31;;;;;;;10.87;2.33;;;;;;;16.37;57.38;96691.69;2106906;28;20696;-64
2024/04/07 06:35:22;;;;;;;12.23;2.45;;;;;;;16.85;54.45;96693.72;2085568;28;20549;-61
2024/04/07 06:36:23;;;;;;;7.70;2.30;;;;;;;16.96;54.04;96687.72;2080098;28;20206;-61
2024/04/07 06:39:10;;;;;;;9.40;2.47;;;;;;;17.36;55.11;96687.53;2093558;28;20556;-61
2024/04/07 06:40:10;;;;;;;12.33;2.70;;;;;;;17.42;55.27;96691.53;2094473;28;20293;-62
2024/04/07 06:42:54;;;;;;;26.55;2.72;;;;;;;17.49;55.81;96700.69;2084487;28;21265;-62
2024/04/07 06:43:55;;;;;;;9.50;2.20;;;;;;;17.33;56.45;96700.09;2078645;28;20552;-63
2024/04/07 06:46:34;;;;;;;16.98;2.50;;;;;;;17.71;54.85;96712.34;2085551;28;20548;-65
2024/04/07 06:47:35;;;;;;;20.00;3.07;;;;;;;17.77;54.62;96709.28;2089293;28;20283;-63
2024/04/07 06:48:36;;;;;;;9.90;2.43;;;;;;;17.82;55.15;96711.59;2075899;28;20253;-62
2024/04/07 06:51:07;;;;;;;11.57;2.42;;;;;;;17.96;55.37;96716.72;2087317;28;20571;-64
2024/04/07 06:52:08;;;;;;;12.33;2.57;;;;;;;18.13;55.37;96726.03;2086834;28;20212;-64
2024/04/07 06:53:08;;;;;;;17.70;2.00;;;;;;;18.17;55.00;96724.00;2073048;28;20206;-64
2024/04/07 06:54:09;;;;;;;6.43;2.07;;;;;;;18.17;54.39;96727.50;2075014;28;20296;-64
2024/04/07 06:55:09;;;;;;;12.70;2.20;;;;;;;18.09;54.38;96728.09;2070306;28;20197;-64
2024/04/07 06:56:10;;;;;;;12.37;1.97;;;;;;;18.16;54.02;96719.72;2062358;28;20236;-64
2024/04/07 06:58:31;;;;;;;16.92;3.60;;;;;;;18.18;54.89;96725.69;2086396;27;20565;-64
2024/04/07 06:59:32;;;;;;;12.87;3.97;;;;;;;18.34;54.85;96726.25;2080595;28;20205;-64
2024/04/07 07:00:32;;;;;;;9.93;3.37;;;;;;;18.44;54.69;96724.59;2070961;28;20292;-64
2024/04/07 07:01:33;;;;;;;9.20;3.53;;;;;;;18.48;53.82;96727.03;2070449;28;20216;-64
2024/04/07 07:02:34;;;;;;;16.10;4.20;;;;;;;18.61;53.32;96719.81;2073391;28;20206;-64
2024/04/07 07:03:35;;;;;;;23.77;4.20;;;;;;;18.35;53.43;96719.19;2065072;28;20222;-64
2024/04/07 07:04:35;;;;;;;18.47;4.40;;;;;;;18.39;54.13;96718.81;2070380;28;20205;-64
2024/04/07 07:05:36;;;;;;;15.60;5.70;;;;;;;18.46;53.48;96723.63;2072432;28;20198;-64
2024/04/07 07:06:36;;;;;;;22.70;5.90;;;;;;;18.57;53.57;96718.38;2072323;28;20816;-65
2024/04/07 07:07:37;;;;;;;17.20;4.93;;;;;;;18.57;53.60;96713.94;2072158;28;20197;-64
2024/04/07 07:08:37;;;;;;;15.43;4.40;;;;;;;18.73;52.75;96716.25;2064474;28;20246;-64
2024/04/07 07:09:38;;;;;;;14.27;4.03;;;;;;;18.70;52.33;96724.44;2061632;28;20211;-64
2024/04/07 07:10:38;;;;;;;17.03;4.67;;;;;;;18.86;52.53;96724.09;2077074;28;20305;-64
2024/04/07 07:11:39;;;;;;;10.93;3.00;;;;;;;19.00;52.50;96725.69;2077074;28;20205;-64
2024/04/07 07:12:39;;;;;;;16.00;3.10;;;;;;;19.07;52.07;96729.56;2062090;28;20213;-64
2024/04/07 07:13:44;;;;;;;8.27;2.20;;;;;;;19.20;52.09;96728.59;2062622;28;20706;-64
2024/04/07 07:14:44;;;;;;;13.10;3.20;;;;;;;19.06;52.06;96725.22;2074797;28;20197;-64
2024/04/07 07:15:45;;;;;;;11.10;2.13;;;;;;;18.88;52.00;96723.97;2066579;28;20203;-64
2024/04/07 07:16:45;;;;;;;8.40;1.90;;;;;;;18.83;52.44;96731.41;2064654;28;20232;-64
2024/04/07 07:17:46;;;;;;;8.03;1.70;;;;;;;18.60;52.56;96713.72;2072995;28;20216;-64
2024/04/07 07:18:46;;;;;;;8.47;1.70;;;;;;;18.70;53.17;96732.38;2062102;28;20230;-64
2024/04/07 07:19:47;;;;;;;7.53;1.90;;;;;;;18.82;52.93;96729.75;2061726;28;20252;-66
2024/04/07 07:20:48;;;;;;;13.90;3.03;;;;;;;18.92;53.53;96731.59;2064307;28;20206;-66
2024/04/07 07:21:49;;;;;;;13.68;2.78;;;;;;;19.09;52.83;96734.72;2081429;28;20278;-67
2024/04/07 07:22:49;;;;;;;8.27;2.10;;;;;;;19.16;52.45;96735.09;2083062;28;20224;-66
2024/04/07 07:23:50;;;;;;;8.83;2.23;;;;;;;19.24;52.08;96741.47;2066191;28;20236;-66
2024/04/07 07:24:50;;;;;;;14.33;2.20;;;;;;;19.42;51.76;96733.88;2065917;28;20205;-66
2024/04/07 07:25:52;;;;;;;8.33;1.53;;;;;;;19.52;51.85;96725.22;2065120;28;20209;-66
2024/04/07 07:26:52;;;;;;;14.27;1.95;;;;;;;19.69;50.73;96742.41;2064757;28;20274;-66
2024/04/07 07:27:53;;;;;;;8.13;1.87;;;;;;;19.81;51.42;96748.53;2062641;28;20207;-66
2024/04/07 07:28:53;;;;;;;14.90;1.77;;;;;;;19.82;51.31;96750.19;2060277;28;20244;-66
2024/04/07 07:29:54;;;;;;;15.43;1.87;;;;;;;19.99;50.81;96751.53;2063678;28;20443;-66
2024/04/07 07:30:54;;;;;;;16.10;2.20;;;;;;;20.08;50.37;96749.94;2064455;28;20568;-67
2024/04/07 07:31:57;;;;;;;13.87;2.60;;;;;;;20.06;49.87;96748.25;2058251;28;20230;-67
2024/04/07 07:32:57;;;;;;;8.15;1.90;;;;;;;20.26;49.71;96752.88;2064590;28;20205;-66
2024/04/07 07:33:58;;;;;;;6.60;1.87;;;;;;;20.28;50.16;96750.94;2063897;28;20222;-66
2024/04/07 07:34:58;;;;;;;7.90;2.03;;;;;;;20.64;49.86;96757.63;2066064;28;20297;-66
2024/04/07 07:35:59;;;;;;;7.90;1.77;;;;;;;20.63;50.74;96753.34;2061639;28;20277;-67
2024/04/07 07:36:59;;;;;;;15.57;1.90;;;;;;;20.68;50.40;96752.91;2073349;28;20201;-67
2024/04/07 07:38:00;;;;;;;5.87;1.80;;;;;;;20.57;50.09;96756.50;2060234;28;20673;-66
2024/04/07 07:39:00;;;;;;;15.60;2.97;;;;;;;20.71;50.04;96758.84;2061297;28;20665;-67
2024/04/07 07:40:01;;;;;;;18.73;1.93;;;;;;;20.56;50.03;96760.94;2063481;28;20725;-66
2024/04/07 07:41:01;;;;;;;12.87;2.10;;;;;;;20.74;50.63;96765.72;2071685;28;20300;-66
2024/04/07 07:42:02;;;;;;;4.67;1.53;;;;;;;20.80;50.46;96762.53;2063525;28;20289;-67
2024/04/07 07:43:03;;;;;;;13.37;1.70;;;;;;;20.71;50.96;96766.81;2080551;28;20214;-66
2024/04/07 07:44:04;;;;;;;14.75;1.95;;;;;;;20.75;52.13;96766.53;2082642;28;20205;-66
2024/04/07 07:45:05;;;;;;;10.10;1.40;;;;;;;20.47;51.67;96760.88;2065106;28;20214;-69
2024/04/07 07:46:05;;;;;;;5.88;1.50;;;;;;;20.27;51.27;96773.13;2065044;28;20218;-66
2024/04/07 07:47:06;;;;;;;16.02;2.20;;;;;;;20.17;51.37;96786.28;2073523;28;20544;-66
2024/04/07 07:48:07;;;;;;;5.80;1.60;;;;;;;19.91;51.13;96773.34;2064872;28;20202;-66
2024/04/07 07:49:08;;;;;;;10.27;1.70;;;;;;;19.72;50.78;96782.72;2072372;28;20633;-66
2024/04/07 07:50:08;;;;;;;9.00;2.00;;;;;;;19.62;51.43;96791.50;2064193;28;20285;-66
2024/04/07 07:51:10;;;;;;;9.77;1.60;;;;;;;19.63;51.33;96791.41;2069128;28;20460;-66
2024/04/07 07:52:10;;;;;;;9.13;1.60;;;;;;;19.65;51.52;96796.59;2063835;28;20214;-66
2024/04/07 07:53:11;;;;;;;7.13;1.43;;;;;;;19.65;51.97;96801.88;2058443;28;20215;-66
2024/04/07 07:54:11;;;;;;;6.63;1.83;;;;;;;19.58;52.25;96799.72;2068349;28;20268;-66
2024/04/07 07:55:12;;;;;;;8.93;1.90;;;;;;;19.61;52.33;96797.81;2058448;28;20199;-66
2024/04/07 07:56:13;;;;;;;11.57;2.42;;;;;;;19.51;52.74;96801.16;2056978;28;20246;-66
2024/04/07 07:57:13;;;;;;;16.67;2.13;;;;;;;19.60;53.30;96806.69;2060356;28;20258;-65
2024/04/07 07:58:14;;;;;;;8.43;1.77;;;;;;;19.78;54.16;96804.41;2058911;28;20744;-65
2024/04/07 07:59:14;;;;;;;10.93;1.50;;;;;;;19.67;53.65;96806.09;2060730;28;20206;-65
2024/04/07 08:00:15;;;;;;;4.60;1.40;;;;;;;19.71;53.61;96804.06;2063267;28;20421;-65
2024/04/07 08:01:16;;;;;;;5.60;1.53;;;;;;;19.72;53.70;96803.09;2071381;28;20220;-65
2024/04/07 08:02:16;;;;;;;13.70;1.77;;;;;;;19.81;53.90;96793.56;2063956;28;20194;-65
2024/04/07 08:03:17;;;;;;;5.70;1.50;;;;;;;19.80;52.55;96795.38;2066947;28;20230;-65
2024/04/07 08:04:17;;;;;;;8.37;1.97;;;;;;;19.74;53.55;96802.00;2066728;28;20218;-65
2024/04/07 08:05:19;;;;;;;3.03;1.30;;;;;;;19.97;53.24;96799.38;2061563;28;20214;-65
2024/04/07 08:06:19;;;;;;;8.30;1.77;;;;;;;20.02;53.03;96805.13;2063197;28;20953;-64
2024/04/07 08:07:20;;;;;;;12.37;2.03;;;;;;;19.85;52.90;96805.63;2068592;28;20582;-68
2024/04/07 08:08:20;;;;;;;9.17;1.70;;;;;;;19.95;53.42;96813.66;2067914;28;20222;-68
2024/04/07 08:09:23;;;;;;;5.87;1.40;;;;;;;20.13;52.71;96814.03;2056884;28;20214;-69
2024/04/07 08:10:24;;;;;;;7.32;1.75;;;;;;;20.15;52.62;96809.41;2053450;28;20207;-69
2024/04/07 08:11:24;;;;;;;8.43;2.07;;;;;;;20.14;52.37;96815.72;2057942;28;20314;-68
2024/04/07 08:12:26;;;;;;;11.10;1.70;;;;;;;20.56;51.63;96816.63;2062513;28;20209;-69
2024/04/07 08:13:26;;;;;;;11.70;1.70;;;;;;;20.66;51.56;96823.84;2068638;28;20241;-69
2024/04/07 08:14:27;;;;;;;4.70;1.80;;;;;;;20.45;52.15;96834.41;2059059;28;20211;-67
2024/04/07 08:15:27;;;;;;;5.50;1.60;;;;;;;20.38;51.93;96834.91;2066686;28;20331;-69
2024/04/07 08:16:28;;;;;;;12.10;2.23;;;;;;;20.38;51.98;96839.38;2060590;28;20214;-69
2024/04/07 08:17:28;;;;;;;9.43;1.83;;;;;;;20.04;52.21;96839.44;2060360;28;20357;-69
2024/04/07 08:18:30;;;;;;;17.37;1.80;;;;;;;20.19;52.77;96848.81;2055554;28;20295;-69
2024/04/07 08:19:30;;;;;;;60.58;16.73;;;;;;;20.19;53.46;96855.94;2059633;28;20206;-72
2024/04/07 08:20:31;;;;;;;8.20;3.57;;;;;;;20.05;54.20;96849.09;2059244;28;20655;-67
2024/04/07 08:21:31;;;;;;;28.63;13.40;;;;;;;20.04;53.86;96850.06;2065796;28;20249;-67
2024/04/07 08:22:32;;;;;;;17.57;5.53;;;;;;;20.14;53.82;96847.53;2053290;28;20249;-67
2024/04/07 08:23:33;;;;;;;12.67;3.00;;;;;;;20.10;53.93;96844.25;2053784;28;20305;-67
2024/04/07 08:24:33;;;;;;;10.43;1.90;;;;;;;19.89;54.29;96839.69;2055011;28;20219;-67
2024/04/07 08:25:34;;;;;;;10.10;1.73;;;;;;;19.72;54.92;96845.47;2055901;28;20208;-67
2024/04/07 08:26:35;;;;;;;10.48;1.42;;;;;;;19.57;54.78;96837.75;2066017;28;20221;-68
2024/04/07 08:27:35;;;;;;;10.87;1.53;;;;;;;19.46;55.32;96839.56;2038474;29;20223;-67
2024/04/07 08:28:38;;;;;;;11.77;1.88;;;;;;;19.49;55.55;96842.81;2049528;28;20219;-67
2024/04/07 08:29:38;;;;;;;8.10;2.05;;;;;;;19.51;55.16;96840.88;2067577;28;20205;-67
2024/04/07 08:30:39;;;;;;;7.33;1.40;;;;;;;19.14;55.66;96849.00;2060502;28;20276;-67
2024/04/07 08:31:39;;;;;;;7.70;1.67;;;;;;;19.08;55.65;96852.13;2062445;28;20839;-67
2024/04/07 08:32:40;;;;;;;11.20;1.50;;;;;;;19.09;55.57;96844.06;2059999;28;20254;-67
2024/04/07 08:33:40;;;;;;;6.27;1.50;;;;;;;18.98;55.37;96836.13;2056957;28;20274;-67
2024/04/07 08:34:41;;;;;;;5.67;1.50;;;;;;;19.18;55.34;96839.88;2057165;28;20223;-67
2024/04/07 08:35:41;;;;;;;10.40;2.13;;;;;;;19.25;55.34;96834.97;2057747;28;20274;-67
2024/04/07 08:36:42;;;;;;;8.53;1.83;;;;;;;19.33;55.65;96844.97;2059007;28;20206;-67
2024/04/07 08:37:42;;;;;;;8.83;2.27;;;;;;;19.35;55.34;96833.28;2060088;28;20206;-67
2024/04/07 08:38:43;;;;;;;10.57;1.57;;;;;;;19.52;55.38;96847.88;2055804;28;20239;-67
2024/04/07 08:39:46;;;;;;;3.47;1.30;;;;;;;19.68;55.37;96852.81;2060136;28;20598;-67
2024/04/07 08:40:47;;;;;;;7.07;1.98;;;;;;;19.72;54.73;96854.25;2058309;28;20222;-67
2024/04/07 08:41:47;;;;;;;17.17;2.10;;;;;;;19.99;54.24;96858.34;2056884;28;20704;-67
2024/04/07 08:42:49;;;;;;;12.13;2.80;;;;;;;19.83;54.34;96857.91;2066861;28;20849;-67
2024/04/07 08:43:50;;;;;;;7.63;1.90;;;;;;;19.62;53.79;96868.31;2060583;28;20231;-65
2024/04/07 08:44:52;;;;;;;7.25;1.85;;;;;;;19.41;53.87;96859.31;2061732;28;20660;-65
2024/04/07 08:45:54;;;;;;;8.05;1.90;;;;;;;19.35;54.03;96869.50;2059886;28;20242;-65
2024/04/07 08:46:56;;;;;;;12.10;1.90;;;;;;;19.45;54.24;96867.00;2059510;28;20633;-65
2024/04/07 08:47:58;;;;;;;5.07;1.70;;;;;;;19.77;54.04;96866.28;2067433;28;20225;-66
2024/04/07 08:48:59;;;;;;;7.95;2.40;;;;;;;20.25;53.13;96866.03;2056715;28;20223;-65
2024/04/07 08:50:02;;;;;;;9.95;2.05;;;;;;;20.54;52.64;96858.38;2059422;28;20218;-65
2024/04/07 08:51:05;;;;;;;19.75;2.00;;;;;;;20.68;52.50;96856.38;2060867;28;20645;-65
2024/04/07 08:52:08;;;;;;;11.05;1.98;;;;;;;20.80;52.17;96859.88;2056826;28;20215;-67
2024/04/07 08:53:10;;;;;;;26.60;6.38;;;;;;;20.82;51.50;96849.97;2058322;28;20215;-68
2024/04/07 08:54:12;;;;;;;10.23;5.55;;;;;;;20.88;51.72;96852.94;2059181;28;20207;-69
2024/04/07 08:55:13;;;;;;;9.73;2.80;;;;;;;20.87;52.09;96843.31;2061819;28;20265;-68
2024/04/07 08:56:14;;;;;;;14.07;3.50;;;;;;;20.78;52.08;96848.56;2060375;28;20207;-68
2024/04/07 08:57:15;;;;;;;11.73;2.00;;;;;;;20.89;51.61;96843.19;2060244;28;20448;-68
2024/04/07 08:58:15;;;;;;;11.38;1.95;;;;;;;21.23;51.78;96850.13;2063467;28;20627;-68
2024/04/07 08:59:19;;;;;;;7.43;1.90;;;;;;;21.02;51.64;96848.31;2057878;28;20219;-68
2024/04/07 09:00:21;;;;;;;10.68;1.85;;;;;;;21.06;51.49;96849.72;2058966;28;20511;-66
2024/04/07 09:01:31;;;;;;;6.20;1.63;;;;;;;20.93;51.59;96843.78;2059159;28;20218;-69
2024/04/07 09:02:33;;;;;;;6.97;1.83;;;;;;;20.74;52.04;96857.75;2051226;28;20398;-69
2024/04/07 09:03:34;;;;;;;9.07;1.98;;;;;;;20.64;52.21;96850.50;2047453;28;20291;-69
2024/04/07 09:04:35;;;;;;;12.30;2.08;;;;;;;20.94;51.79;96859.56;2046268;28;20204;-69
2024/04/07 09:05:37;;;;;;;9.18;2.53;;;;;;;21.04;51.30;96852.53;2054513;28;20195;-68
2024/04/07 09:06:38;;;;;;;14.07;2.33;;;;;;;21.25;51.28;96864.94;2056364;28;20195;-69
2024/04/07 09:07:39;;;;;;;6.38;1.60;;;;;;;21.66;50.81;96849.97;2058151;28;20210;-69
2024/04/07 09:08:44;;;;;;;8.63;2.47;;;;;;;21.85;50.41;96864.31;2054923;28;20250;-69
2024/04/07 09:09:44;;;;;;;5.60;1.58;;;;;;;21.68;50.01;96857.81;2061270;28;20213;-69
2024/04/07 09:10:45;;;;;;;6.43;1.83;;;;;;;21.52;50.73;96852.94;2061467;28;20202;-69
2024/04/07 09:11:51;;;;;;;7.50;2.23;;;;;;;21.08;50.14;96870.81;2059247;28;20250;-69
2024/04/07 09:13:02;;;;;;;15.73;2.60;;;;;;;20.93;51.32;96865.00;2059941;28;20211;-69
2024/04/07 09:14:05;;;;;;;13.07;1.48;;;;;;;20.46;51.81;96859.97;2059042;28;20222;-65
2024/04/07 09:15:09;;;;;;;17.38;1.92;;;;;;;20.45;51.80;96866.25;2057162;28;20414;-69
2024/04/07 09:16:09;;;;;;;8.20;2.08;;;;;;;20.60;51.97;96861.50;2055530;28;20672;-70
2024/04/07 09:17:11;;;;;;;10.50;1.90;;;;;;;20.61;51.80;96865.81;2058391;28;20527;-70
2024/04/07 09:18:12;;;;;;;9.18;2.17;;;;;;;20.67;51.97;96862.66;2057002;28;20222;-70
2024/04/07 09:19:13;;;;;;;18.58;2.30;;;;;;;20.84;51.42;96861.31;2061957;28;20211;-70
2024/04/07 09:20:20;;;;;;;11.80;2.00;;;;;;;20.82;51.39;96857.94;2054901;28;20298;-66
2024/04/07 09:21:21;;;;;;;7.93;1.75;;;;;;;20.86;51.89;96862.88;2055031;28;20641;-66
2024/04/07 09:22:23;;;;;;;10.35;2.17;;;;;;;20.78;51.89;96865.31;2060662;28;20202;-66
2024/04/07 09:23:23;;;;;;;4.50;1.60;;;;;;;20.87;51.78;96869.88;2061721;28;20230;-66
2024/04/07 09:24:25;;;;;;;8.60;2.33;;;;;;;20.79;51.68;96869.63;2053197;28;20212;-66
2024/04/07 09:25:26;;;;;;;12.23;2.70;;;;;;;20.77;52.20;96878.69;2051250;28;20266;-66
2024/04/07 09:26:27;;;;;;;14.43;2.00;;;;;;;20.77;51.75;96878.69;2050593;28;20826;-66
2024/04/07 09:27:27;;;;;;;7.43;1.60;;;;;;;20.65;51.28;96884.00;2057842;28;20451;-65
2024/04/07 09:28:28;;;;;;;8.10;2.10;;;;;;;20.72;51.92;96871.09;2056862;28;20226;-64
2024/04/07 09:29:29;;;;;;;7.73;2.27;;;;;;;21.13;51.95;96871.31;2058144;28;20247;-64
2024/04/07 09:30:30;;;;;;;7.00;1.70;;;;;;;21.18;52.02;96861.16;2070488;28;20205;-65
2024/04/07 09:31:31;;;;;;;14.57;2.50;;;;;;;21.26;52.04;96858.66;2051722;28;20222;-66
2024/04/07 09:32:32;;;;;;;4.70;1.70;;;;;;;21.63;51.45;96860.03;2053354;28;20207;-66
2024/04/07 09:33:35;;;;;;;6.93;2.17;;;;;;;21.73;51.40;96860.06;2060590;28;20799;-65
2024/04/07 09:34:35;;;;;;;11.52;1.63;;;;;;;21.61;51.83;96868.13;2059537;28;20215;-65
2024/04/07 09:35:36;;;;;;;14.23;2.30;;;;;;;21.35;51.07;96865.00;2056244;28;20202;-65
2024/04/07 09:36:37;;;;;;;18.33;8.20;;;;;;;21.46;51.42;96858.81;2058049;28;20202;-64
2024/04/07 09:37:42;;;;;;;32.53;15.45;;;;;;;21.77;51.42;96856.19;2060160;28;20636;-65
2024/04/07 09:38:42;;;;;;;11.98;3.90;;;;;;;21.63;51.50;96844.09;2056339;28;20591;-64
2024/04/07 09:39:44;;;;;;;24.53;11.03;;;;;;;21.79;51.91;96855.06;2061717;28;20234;-64
2024/04/07 09:40:46;;;;;;;18.10;9.45;;;;;;;21.93;51.63;96850.34;2057666;28;20429;-65
2024/04/07 09:41:47;;;;;;;13.63;2.50;;;;;;;21.58;52.21;96857.75;2058559;28;20215;-66
2024/04/07 09:42:52;;;;;;;11.35;1.83;;;;;;;21.45;51.91;96857.09;2055440;28;20230;-66
2024/04/07 09:43:53;;;;;;;11.48;1.88;;;;;;;21.61;51.80;96862.81;2056185;28;20297;-66
2024/04/07 09:44:57;;;;;;;11.10;1.77;;;;;;;21.67;52.13;96856.13;2058845;28;20199;-66
2024/04/07 09:45:57;;;;;;;5.75;1.90;;;;;;;21.59;51.43;96866.59;2053341;28;20218;-66
2024/04/07 09:47:03;;;;;;;10.13;1.80;;;;;;;21.38;52.49;96856.78;2049892;28;20207;-66
2024/04/07 09:48:05;;;;;;;7.32;1.75;;;;;;;21.43;52.56;96862.53;2056572;28;20654;-66
2024/04/07 09:49:08;;;;;;;9.63;2.08;;;;;;;21.61;52.62;96857.50;2054777;28;20214;-66
2024/04/07 09:50:33;;;;;;;13.02;1.85;;;;;;;22.00;51.93;96868.31;2061976;28;20232;-66
2024/04/07 09:51:40;;;;;;;7.93;1.60;;;;;;;22.62;50.98;96862.03;2056488;28;20250;-66
2024/04/07 09:52:45;;;;;;;12.10;2.28;;;;;;;22.45;50.35;96840.44;2060266;28;20646;-65
2024/04/07 09:53:58;;;;;;;5.13;1.75;;;;;;;22.87;49.77;96855.31;2055678;28;20254;-65
2024/04/07 09:55:06;;;;;;;20.20;1.90;;;;;;;23.41;50.00;96858.34;2058207;28;20210;-65
2024/04/07 09:56:11;;;;;;;11.93;1.60;;;;;;;23.41;49.62;96858.34;2062057;28;20834;-65
2024/04/07 09:57:21;;;;;;;7.30;1.90;;;;;;;23.56;50.02;96861.38;2068271;28;20205;-63
2024/04/07 09:58:23;;;;;;;7.05;1.50;;;;;;;23.66;49.43;96860.53;2056397;28;20728;-67
2024/04/07 09:59:25;;;;;;;7.88;2.03;;;;;;;23.39;48.96;96870.13;2054608;28;20222;-67
2024/04/07 10:00:26;;;;;;;11.15;2.20;;;;;;;23.44;49.00;96865.22;2057519;28;20229;-66
2024/04/07 10:01:26;;;;;;;17.27;2.00;;;;;;;23.78;48.45;96860.22;2058261;28;20198;-66
2024/04/07 10:02:28;;;;;;;6.60;1.60;;;;;;;24.28;47.83;96861.66;2059663;28;20249;-66
2024/04/07 10:03:29;;;;;;;7.00;1.90;;;;;;;24.42;47.50;96863.00;2059766;28;20455;-66
2024/04/07 10:04:34;;;;;;;7.73;2.03;;;;;;;24.55;46.96;96859.13;2059689;28;20222;-66
2024/04/07 10:05:35;;;;;;;13.50;2.45;;;;;;;24.64;46.83;96858.25;2058503;28;20950;-66
2024/04/07 10:06:36;;;;;;;6.80;1.70;;;;;;;24.89;46.65;96859.31;2057551;28;20616;-66
2024/04/07 10:07:37;;;;;;;13.50;1.43;;;;;;;24.78;46.41;96859.53;2047789;28;20219;-66
2024/04/07 10:08:38;;;;;;;10.35;1.70;;;;;;;24.53;47.03;96856.63;2048745;28;20469;-66
2024/04/07 10:09:40;;;;;;;9.40;2.10;;;;;;;23.99;47.43;96853.00;2060576;28;20294;-66
2024/04/07 10:10:42;;;;;;;13.38;1.83;;;;;;;23.79;47.71;96850.38;2063753;28;20460;-66
2024/04/07 10:11:49;;;;;;;9.27;1.85;;;;;;;24.17;47.75;96858.38;2058130;28;20210;-66
2024/04/07 10:12:49;;;;;;;15.20;1.88;;;;;;;23.89;47.14;96856.50;2065943;28;20206;-66
2024/04/07 10:13:50;;;;;;;6.07;1.93;;;;;;;24.17;47.75;96861.03;2057008;28;20254;-66
2024/04/07 10:14:50;;;;;;;12.47;1.67;;;;;;;24.38;47.76;96856.28;2064836;28;20226;-66
2024/04/07 10:15:56;;;;;;;10.90;2.10;;;;;;;24.62;46.97;96847.69;2059289;28;20221;-67
2024/04/07 10:16:58;;;;;;;6.43;1.35;;;;;;;25.08;46.72;96836.94;2059212;28;20206;-64
2024/04/07 10:17:58;;;;;;;9.02;1.95;;;;;;;25.04;46.04;96842.72;2055056;28;20207;-65
2024/04/07 10:18:59;;;;;;;11.73;2.47;;;;;;;24.78;46.69;96843.53;2054381;28;20327;-67
2024/04/07 10:19:59;;;;;;;11.80;1.63;;;;;;;24.57;46.08;96844.63;2064359;28;20292;-66
2024/04/07 10:21:00;;;;;;;8.17;1.60;;;;;;;24.02;47.64;96845.53;2058319;28;20239;-67
2024/04/07 10:22:01;;;;;;;15.67;1.87;;;;;;;24.01;47.48;96846.53;2059400;28;20688;-70
2024/04/07 10:23:03;;;;;;;11.38;2.33;;;;;;;24.17;47.55;96853.03;2057345;28;20212;-69
2024/04/07 10:24:07;;;;;;;6.93;2.72;;;;;;;24.82;47.63;96844.06;2054203;28;20231;-70
2024/04/07 10:25:09;;;;;;;8.43;3.60;;;;;;;24.65;47.24;96851.09;2058323;28;20213;-70
2024/04/07 10:26:11;;;;;;;43.00;21.15;;;;;;;25.03;47.19;96841.91;2066648;28;20233;-70
2024/04/07 10:27:12;;;;;;;24.08;5.70;;;;;;;25.35;45.93;96844.97;2076413;28;20217;-69
2024/04/07 10:28:13;;;;;;;8.67;3.23;;;;;;;25.66;45.65;96839.19;2050158;28;20202;-69
2024/04/07 10:29:16;;;;;;;5.85;2.30;;;;;;;25.90;45.26;96842.00;2056629;28;20448;-69
2024/04/07 10:30:19;;;;;;;8.30;1.60;;;;;;;25.88;45.01;96833.28;2050988;28;20214;-70
2024/04/07 10:31:31;;;;;;;12.35;2.80;;;;;;;26.14;45.27;96836.91;2035560;29;20216;-69
2024/04/07 10:32:36;;;;;;;14.38;2.80;;;;;;;25.96;46.30;96834.31;2040527;28;20218;-69
2024/04/07 10:33:39;;;;;;;18.45;2.80;;;;;;;25.97;45.66;96831.47;2044877;28;20235;-69
2024/04/07 10:34:55;;;;;;;14.90;2.00;;;;;;;24.62;45.35;96830.84;2047489;28;20207;-70
2024/04/07 10:36:00;;;;;;;13.88;2.30;;;;;;;24.74;46.19;96831.47;2056985;28;20269;-69
2024/04/07 10:37:01;;;;;;;11.45;2.50;;;;;;;25.17;46.08;96829.81;2054542;28;20215;-71
2024/04/07 10:38:02;;;;;;;11.13;2.33;;;;;;;24.94;45.44;96838.31;2058788;28;20732;-69
2024/04/07 10:39:08;;;;;;;8.60;1.83;;;;;;;24.97;45.54;96820.31;2057861;28;20639;-70
2024/04/07 10:40:10;;;;;;;12.07;2.17;;;;;;;25.24;46.49;96814.84;2052196;28;20214;-69
2024/04/07 10:41:21;;;;;;;8.70;2.40;;;;;;;26.14;44.78;96821.69;2048993;28;20242;-70
2024/04/07 10:42:21;;;;;;;8.57;2.03;;;;;;;26.33;44.79;96825.09;2059190;28;20453;-70
2024/04/07 10:43:22;;;;;;;7.00;1.60;;;;;;;26.36;45.14;96816.72;2048282;28;20195;-70
2024/04/07 10:44:23;;;;;;;19.63;2.83;;;;;;;25.62;45.41;96814.59;2042328;29;20220;-67
2024/04/07 10:45:25;;;;;;;16.90;1.95;;;;;;;25.37;44.85;96822.47;2050278;28;20203;-68
2024/04/07 10:46:27;;;;;;;12.35;1.67;;;;;;;25.24;45.25;96822.88;2042058;28;20210;-70
2024/04/07 10:47:29;;;;;;;12.95;2.95;;;;;;;25.39;44.80;96825.00;2055315;28;20202;-71
2024/04/07 10:48:30;;;;;;;9.57;2.10;;;;;;;25.36;45.47;96822.66;2065523;28;20726;-70
2024/04/07 10:49:30;;;;;;;8.10;1.83;;;;;;;25.14;45.05;96815.94;2063770;28;20699;-70
2024/04/07 10:50:31;;;;;;;8.73;1.73;;;;;;;24.77;45.26;96815.13;2064161;28;20452;-71
2024/04/07 10:51:32;;;;;;;5.73;1.70;;;;;;;25.20;45.75;96820.66;2064994;28;20268;-70
2024/04/07 10:52:32;;;;;;;16.63;7.03;;;;;;;26.43;45.82;96816.94;2058090;28;20308;-71
2024/04/07 10:53:33;;;;;;;9.20;2.50;;;;;;;26.96;44.14;96817.53;2062999;28;20687;-71
2024/04/07 10:54:36;;;;;;;10.18;2.25;;;;;;;26.42;44.33;96809.91;2055411;28;20223;-71
2024/04/07 10:55:38;;;;;;;8.35;2.58;;;;;;;25.99;43.69;96805.41;2048573;28;20214;-70
2024/04/07 10:56:41;;;;;;;10.77;4.43;;;;;;;26.07;44.12;96807.31;2051138;28;20216;-70
2024/04/07 10:57:42;;;;;;;12.13;6.65;;;;;;;26.06;43.61;96794.94;2055726;28;20198;-69
2024/04/07 10:58:43;;;;;;;35.92;18.58;;;;;;;26.39;44.42;96805.72;2055003;28;20218;-69
2024/04/07 10:59:44;;;;;;;42.00;15.90;;;;;;;26.20;43.40;96805.00;2057119;28;20207;-69
2024/04/07 11:00:45;;;;;;;31.23;14.70;;;;;;;26.11;43.57;96797.94;2060792;28;20225;-69
2024/04/07 11:01:45;;;;;;;22.17;7.22;;;;;;;26.18;44.31;96798.97;2055968;28;20548;-69
2024/04/07 11:02:46;;;;;;;24.23;11.33;;;;;;;25.85;43.67;96803.34;2061225;28;20214;-70
2024/04/07 11:03:47;;;;;;;11.30;3.93;;;;;;;25.89;43.19;96799.31;2058806;28;20289;-69
2024/04/07 11:04:53;;;;;;;11.82;2.80;;;;;;;26.75;43.50;96808.13;2062567;28;20214;-69
2024/04/07 11:05:55;;;;;;;9.60;2.03;;;;;;;27.05;42.42;96809.28;2054087;28;20203;-69
2024/04/07 11:06:56;;;;;;;9.10;3.00;;;;;;;26.65;41.81;96807.41;2058198;28;20210;-70
2024/04/07 11:07:57;;;;;;;9.57;2.00;;;;;;;26.12;42.65;96813.00;2055670;28;20202;-70
2024/04/07 11:08:57;;;;;;;14.57;2.50;;;;;;;26.36;43.35;96808.69;2056966;28;20262;-70
2024/04/07 11:10:01;;;;;;;8.60;2.00;;;;;;;25.61;43.23;96810.25;2059628;28;20305;-70
2024/04/07 11:11:02;;;;;;;11.82;1.90;;;;;;;25.65;43.45;96803.59;2057882;28;20701;-70
2024/04/07 11:12:04;;;;;;;13.13;1.70;;;;;;;26.03;43.49;96805.91;2058015;28;20526;-69
2024/04/07 11:13:08;;;;;;;9.45;2.25;;;;;;;26.19;43.15;96805.97;2059664;28;20210;-70
2024/04/07 11:14:09;;;;;;;8.43;2.03;;;;;;;26.70;42.40;96800.56;2058929;28;20657;-69
2024/04/07 11:15:19;;;;;;;13.80;2.10;;;;;;;25.57;43.59;96799.03;2057511;28;20363;-69
2024/04/07 11:16:20;;;;;;;6.47;1.90;;;;;;;25.39;45.49;96796.41;2061522;28;20210;-69
2024/04/07 11:17:20;;;;;;;14.97;2.07;;;;;;;25.79;44.47;96787.94;2058609;28;20215;-70
2024/04/07 11:18:23;;;;;;;12.30;1.87;;;;;;;26.66;44.30;96777.78;2055673;28;20627;-70
2024/04/07 11:19:24;;;;;;;4.20;1.40;;;;;;;27.05;43.60;96770.97;2058617;28;20253;-69
2024/04/07 11:20:26;;;;;;;14.95;2.03;;;;;;;27.32;41.95;96775.09;2058257;28;20210;-69
2024/04/07 11:21:27;;;;;;;11.82;2.00;;;;;;;25.57;42.97;96776.81;2062519;28;20825;-70
2024/04/07 11:22:28;;;;;;;7.53;1.73;;;;;;;25.07;43.95;96783.69;2060941;28;20214;-69
2024/04/07 11:23:29;;;;;;;8.13;1.63;;;;;;;24.69;45.91;96775.88;2063005;28;20224;-67
2024/04/07 11:24:31;;;;;;;8.83;1.83;;;;;;;26.12;43.25;96778.22;2056432;28;20464;-69
2024/04/07 11:25:32;;;;;;;6.65;1.52;;;;;;;26.20;42.58;96778.22;2056956;28;20210;-68
2024/04/07 11:26:32;;;;;;;11.60;1.80;;;;;;;25.65;42.49;96771.50;2058464;28;20225;-66